sensor_id;sensor_type;location;lat;lon;timestamp;pressure;altitude;pressure_sealevel;temperature;humidity
60089;BME280;45961;53.574;55.878;2023-04-02T00:00:23;100388.84;;;0.92;100.00
60089;BME280;45961;53.574;55.878;2023-04-02T00:01:34;100419.34;;;1.07;100.00
60089;BME280;45961;53.574;55.878;2023-04-02T00:02:54;100387.41;;;0.97;100.00
60089;BME280;45961;53.574;55.878;2023-04-02T00:05:24;100412.78;;;1.12;99.80
60089;BME280;45961;53.574;55.878;2023-04-02T00:06:35;100371.81;;;0.91;99.67
60089;BME280;45961;53.574;55.878;2023-04-02T00:07:40;100405.94;;;1.11;99.62
60089;BME280;45961;53.574;55.878;2023-04-02T00:08:41;100412.78;;;1.12;99.56
60089;BME280;45961;53.574;55.878;2023-04-02T00:09:42;100398.88;;;1.05;99.35
60089;BME280;45961;53.574;55.878;2023-04-02T00:11:01;100411.47;;;1.02;99.36
60089;BME280;45961;53.574;55.878;2023-04-02T00:12:17;100404.75;;;1.04;99.26
60089;BME280;45961;53.574;55.878;2023-04-02T00:13:24;100411.69;;;1.07;99.19
60089;BME280;45961;53.574;55.878;2023-04-02T00:14:31;100413.66;;;1.12;99.23
60089;BME280;45961;53.574;55.878;2023-04-02T00:15:42;100425.66;;;0.97;99.02
60089;BME280;45961;53.574;55.878;2023-04-02T00:16:44;100398.66;;;1.01;99.01
60089;BME280;45961;53.574;55.878;2023-04-02T00:17:45;100407.88;;;0.98;98.85
60089;BME280;45961;53.574;55.878;2023-04-02T00:18:50;100417.59;;;1.06;98.92
60089;BME280;45961;53.574;55.878;2023-04-02T00:20:03;100416.88;;;0.92;98.76
60089;BME280;45961;53.574;55.878;2023-04-02T00:22:19;100414.41;;;1.10;98.73
60089;BME280;45961;53.574;55.878;2023-04-02T00:23:21;100403.09;;;1.05;98.71
60089;BME280;45961;53.574;55.878;2023-04-02T00:24:23;100416.50;;;1.01;98.57
60089;BME280;45961;53.574;55.878;2023-04-02T00:25:26;100397.53;;;0.95;98.43
60089;BME280;45961;53.574;55.878;2023-04-02T00:26:34;100398.66;;;1.01;98.51
60089;BME280;45961;53.574;55.878;2023-04-02T00:27:36;100401.19;;;1.01;98.38
60089;BME280;45961;53.574;55.878;2023-04-02T00:28:37;100412.16;;;0.99;98.26
60089;BME280;45961;53.574;55.878;2023-04-02T00:29:50;100388.53;;;1.02;98.04
60089;BME280;45961;53.574;55.878;2023-04-02T00:30:57;100391.06;;;1.02;97.98
60089;BME280;45961;53.574;55.878;2023-04-02T00:31:59;100396.38;;;1.07;97.77
60089;BME280;45961;53.574;55.878;2023-04-02T00:33:00;100397.47;;;1.12;97.77
60089;BME280;45961;53.574;55.878;2023-04-02T00:34:03;100378.59;;;0.90;97.56
60089;BME280;45961;53.574;55.878;2023-04-02T00:35:22;100385.34;;;0.90;97.45
60089;BME280;45961;53.574;55.878;2023-04-02T00:36:27;100412.72;;;1.10;97.48
60089;BME280;45961;53.574;55.878;2023-04-02T00:37:30;100387.41;;;0.97;97.25
60089;BME280;45961;53.574;55.878;2023-04-02T00:38:38;100418.63;;;1.09;97.48
60089;BME280;45961;53.574;55.878;2023-04-02T00:39:43;100387.66;;;1.02;97.32
60089;BME280;45961;53.574;55.878;2023-04-02T00:40:44;100405.34;;;1.16;97.25
60089;BME280;45961;53.574;55.878;2023-04-02T00:41:46;100407.47;;;1.07;97.09
60089;BME280;45961;53.574;55.878;2023-04-02T00:42:49;100400.94;;;0.96;97.12
60089;BME280;45961;53.574;55.878;2023-04-02T00:43:54;100400.38;;;1.02;97.02
60089;BME280;45961;53.574;55.878;2023-04-02T00:44:57;100406.41;;;1.04;96.93
60089;BME280;45961;53.574;55.878;2023-04-02T00:46:02;100410.59;;;1.02;97.13
60089;BME280;45961;53.574;55.878;2023-04-02T00:47:11;100394.91;;;0.94;96.92
60089;BME280;45961;53.574;55.878;2023-04-02T00:48:34;100415.19;;;1.09;96.84
60089;BME280;45961;53.574;55.878;2023-04-02T00:49:39;100412.50;;;1.06;96.64
60089;BME280;45961;53.574;55.878;2023-04-02T00:50:42;100420.13;;;1.06;96.77
60089;BME280;45961;53.574;55.878;2023-04-02T00:51:54;100410.88;;;1.08;96.51
60089;BME280;45961;53.574;55.878;2023-04-02T00:52:57;100373.16;;;0.84;96.31
60089;BME280;45961;53.574;55.878;2023-04-02T00:54:03;100432.72;;;1.03;96.27
60089;BME280;45961;53.574;55.878;2023-04-02T00:55:11;100404.75;;;1.04;96.33
60089;BME280;45961;53.574;55.878;2023-04-02T00:56:25;100407.38;;;1.06;96.29
60089;BME280;45961;53.574;55.878;2023-04-02T00:57:28;100395.59;;;1.08;96.16
60089;BME280;45961;53.574;55.878;2023-04-02T00:58:34;100387.41;;;0.97;95.90
60089;BME280;45961;53.574;55.878;2023-04-02T01:00:13;100410.00;;;1.07;95.80
60089;BME280;45961;53.574;55.878;2023-04-02T01:01:17;100397.03;;;1.03;95.77
60089;BME280;45961;53.574;55.878;2023-04-02T01:02:23;100398.31;;;0.94;95.88
60089;BME280;45961;53.574;55.878;2023-04-02T01:03:29;100396.09;;;1.01;95.94
60089;BME280;45961;53.574;55.878;2023-04-02T01:04:34;100401.97;;;0.99;95.81
60089;BME280;45961;53.574;55.878;2023-04-02T01:05:36;100404.53;;;0.99;95.81
60089;BME280;45961;53.574;55.878;2023-04-02T01:06:38;100357.22;;;0.88;95.75
60089;BME280;45961;53.574;55.878;2023-04-02T01:09:09;100401.00;;;1.14;95.45
60089;BME280;45961;53.574;55.878;2023-04-02T01:11:47;100396.78;;;1.14;95.04
60089;BME280;45961;53.574;55.878;2023-04-02T01:15:41;100381.09;;;0.72;94.98
60089;BME280;45961;53.574;55.878;2023-04-02T01:17:03;100387.06;;;0.73;94.85
60089;BME280;45961;53.574;55.878;2023-04-02T01:21:44;100393.19;;;0.77;94.81
60089;BME280;45961;53.574;55.878;2023-04-02T01:23:52;100397.16;;;0.71;94.34
60089;BME280;45961;53.574;55.878;2023-04-02T01:24:58;100381.88;;;0.55;93.95
60089;BME280;45961;53.574;55.878;2023-04-02T01:27:25;100379.44;;;0.40;93.71
60089;BME280;45961;53.574;55.878;2023-04-02T01:29:52;100399.06;;;0.59;93.78
60089;BME280;45961;53.574;55.878;2023-04-02T01:30:57;100415.00;;;0.55;93.63
60089;BME280;45961;53.574;55.878;2023-04-02T01:32:20;100396.00;;;0.48;93.50
60089;BME280;45961;53.574;55.878;2023-04-02T01:33:27;100380.22;;;0.56;93.56
60089;BME280;45961;53.574;55.878;2023-04-02T01:34:29;100382.06;;;0.58;93.73
60089;BME280;45961;53.574;55.878;2023-04-02T01:35:34;100375.34;;;0.44;93.46
60089;BME280;45961;53.574;55.878;2023-04-02T01:36:53;100395.97;;;0.65;93.16
60089;BME280;45961;53.574;55.878;2023-04-02T01:38:20;100377.75;;;0.57;92.99
60089;BME280;45961;53.574;55.878;2023-04-02T01:40:48;100405.84;;;0.59;92.86
60089;BME280;45961;53.574;55.878;2023-04-02T01:43:50;100401.31;;;0.53;92.89
60089;BME280;45961;53.574;55.878;2023-04-02T01:45:03;100362.72;;;0.29;93.09
60089;BME280;45961;53.574;55.878;2023-04-02T01:46:23;100394.09;;;0.44;93.39
60089;BME280;45961;53.574;55.878;2023-04-02T01:47:24;100374.81;;;0.49;93.64
60089;BME280;45961;53.574;55.878;2023-04-02T01:48:29;100348.56;;;0.34;93.53
60089;BME280;45961;53.574;55.878;2023-04-02T01:49:31;100399.47;;;0.51;93.43
60089;BME280;45961;53.574;55.878;2023-04-02T01:50:37;100396.28;;;0.55;93.36
60089;BME280;45961;53.574;55.878;2023-04-02T01:51:42;100410.38;;;0.64;93.36
60089;BME280;45961;53.574;55.878;2023-04-02T01:52:49;100408.38;;;0.59;93.13
60089;BME280;45961;53.574;55.878;2023-04-02T01:53:52;100408.00;;;0.51;93.43
60089;BME280;45961;53.574;55.878;2023-04-02T01:54:55;100383.50;;;0.53;93.34
60089;BME280;45961;53.574;55.878;2023-04-02T01:55:59;100384.38;;;0.54;93.37
60089;BME280;45961;53.574;55.878;2023-04-02T01:57:01;100380.06;;;0.53;93.22
60089;BME280;45961;53.574;55.878;2023-04-02T01:58:02;100343.53;;;0.36;93.38
60089;BME280;45961;53.574;55.878;2023-04-02T01:59:06;100392.16;;;0.57;93.38
60089;BME280;45961;53.574;55.878;2023-04-02T02:00:15;100400.56;;;0.72;93.31
60089;BME280;45961;53.574;55.878;2023-04-02T02:01:27;100338.84;;;0.27;93.21
60089;BME280;45961;53.574;55.878;2023-04-02T02:02:31;100363.44;;;0.43;93.29
60089;BME280;45961;53.574;55.878;2023-04-02T02:03:32;100399.25;;;0.62;93.36
60089;BME280;45961;53.574;55.878;2023-04-02T02:04:35;100381.66;;;0.51;93.48
60089;BME280;45961;53.574;55.878;2023-04-02T02:05:36;100400.75;;;0.59;93.47
60089;BME280;45961;53.574;55.878;2023-04-02T02:06:38;100385.63;;;0.45;93.71
60089;BME280;45961;53.574;55.878;2023-04-02T02:07:39;100398.03;;;0.56;93.87
60089;BME280;45961;53.574;55.878;2023-04-02T02:09:46;100411.56;;;0.55;93.97
60089;BME280;45961;53.574;55.878;2023-04-02T02:10:48;100329.88;;;0.17;94.13
60089;BME280;45961;53.574;55.878;2023-04-02T02:11:50;100391.91;;;0.52;94.04
60089;BME280;45961;53.574;55.878;2023-04-02T02:12:52;100351.66;;;0.29;94.33
60089;BME280;45961;53.574;55.878;2023-04-02T02:13:56;100425.66;;;0.64;94.26
60089;BME280;45961;53.574;55.878;2023-04-02T02:14:58;100362.94;;;0.50;94.42
60089;BME280;45961;53.574;55.878;2023-04-02T02:16:00;100403.63;;;0.65;94.30
60089;BME280;45961;53.574;55.878;2023-04-02T02:17:02;100416.91;;;0.76;94.35
60089;BME280;45961;53.574;55.878;2023-04-02T02:18:16;100393.03;;;0.73;94.12
60089;BME280;45961;53.574;55.878;2023-04-02T02:19:29;100406.69;;;0.76;94.16
60089;BME280;45961;53.574;55.878;2023-04-02T02:20:33;100382.34;;;0.64;93.96
60089;BME280;45961;53.574;55.878;2023-04-02T02:21:43;100391.81;;;0.67;93.81
60089;BME280;45961;53.574;55.878;2023-04-02T02:22:47;100394.69;;;0.73;93.88
60089;BME280;45961;53.574;55.878;2023-04-02T02:23:50;100381.56;;;0.82;93.84
60089;BME280;45961;53.574;55.878;2023-04-02T02:24:52;100370.66;;;0.52;93.72
60089;BME280;45961;53.574;55.878;2023-04-02T02:25:54;100394.78;;;0.74;93.78
60089;BME280;45961;53.574;55.878;2023-04-02T02:28:30;100395.09;;;0.81;93.51
60089;BME280;45961;53.574;55.878;2023-04-02T02:29:36;100389.44;;;0.70;93.50
60089;BME280;45961;53.574;55.878;2023-04-02T02:31:00;100408.72;;;0.81;93.39
60089;BME280;45961;53.574;55.878;2023-04-02T02:32:05;100395.16;;;0.82;93.44
60089;BME280;45961;53.574;55.878;2023-04-02T02:34:21;100349.63;;;0.72;92.97
60089;BME280;45961;53.574;55.878;2023-04-02T02:35:39;100393.88;;;0.90;92.87
60089;BME280;45961;53.574;55.878;2023-04-02T02:36:55;100391.47;;;1.28;92.63
60089;BME280;45961;53.574;55.878;2023-04-02T02:39:41;100387.69;;;2.67;89.94
60089;BME280;45961;53.574;55.878;2023-04-02T02:40:44;100384.78;;;3.19;87.88
60089;BME280;45961;53.574;55.878;2023-04-02T02:41:56;100385.81;;;3.66;85.41
60089;BME280;45961;53.574;55.878;2023-04-02T02:43:02;100384.91;;;3.65;82.95
60089;BME280;45961;53.574;55.878;2023-04-02T02:45:16;100383.22;;;3.87;80.37
60089;BME280;45961;53.574;55.878;2023-04-02T02:46:21;100387.56;;;4.12;79.26
60089;BME280;45961;53.574;55.878;2023-04-02T02:47:32;100381.88;;;3.74;78.43
60089;BME280;45961;53.574;55.878;2023-04-02T02:48:38;100387.09;;;3.77;79.07
60089;BME280;45961;53.574;55.878;2023-04-02T02:49:43;100383.09;;;3.84;78.97
60089;BME280;45961;53.574;55.878;2023-04-02T02:50:46;100384.13;;;3.89;78.80
60089;BME280;45961;53.574;55.878;2023-04-02T02:51:58;100385.00;;;4.12;78.61
60089;BME280;45961;53.574;55.878;2023-04-02T02:53:33;100385.91;;;4.36;77.87
60089;BME280;45961;53.574;55.878;2023-04-02T02:54:49;100381.28;;;4.50;77.27
60089;BME280;45961;53.574;55.878;2023-04-02T02:55:55;100367.28;;;4.40;76.50
60089;BME280;45961;53.574;55.878;2023-04-02T02:57:03;100384.75;;;5.00;75.98
60089;BME280;45961;53.574;55.878;2023-04-02T02:58:17;100385.44;;;4.94;74.94
60089;BME280;45961;53.574;55.878;2023-04-02T02:59:36;100358.25;;;4.76;74.03
60089;BME280;45961;53.574;55.878;2023-04-02T03:00:38;100377.50;;;4.88;73.54
60089;BME280;45961;53.574;55.878;2023-04-02T03:01:41;100385.78;;;5.05;73.48
60089;BME280;45961;53.574;55.878;2023-04-02T03:02:43;100383.88;;;5.00;72.78
60089;BME280;45961;53.574;55.878;2023-04-02T03:03:46;100372.19;;;5.08;72.73
60089;BME280;45961;53.574;55.878;2023-04-02T03:04:50;100379.66;;;5.02;72.40
60089;BME280;45961;53.574;55.878;2023-04-02T03:06:03;100379.72;;;5.29;72.11
60089;BME280;45961;53.574;55.878;2023-04-02T03:07:06;100382.69;;;5.68;71.48
60089;BME280;45961;53.574;55.878;2023-04-02T03:08:27;100380.22;;;5.98;70.38
60089;BME280;45961;53.574;55.878;2023-04-02T03:11:01;100374.66;;;6.13;68.90
60089;BME280;45961;53.574;55.878;2023-04-02T03:13:35;100375.03;;;6.25;68.12
60089;BME280;45961;53.574;55.878;2023-04-02T03:14:45;100375.38;;;6.67;67.51
60089;BME280;45961;53.574;55.878;2023-04-02T03:16:12;100376.31;;;6.39;66.37
60089;BME280;45961;53.574;55.878;2023-04-02T03:17:25;100376.44;;;6.76;66.36
60089;BME280;45961;53.574;55.878;2023-04-02T03:21:35;100360.34;;;5.92;67.16
60089;BME280;45961;53.574;55.878;2023-04-02T03:22:59;100366.09;;;5.85;66.49
60089;BME280;45961;53.574;55.878;2023-04-02T03:24:16;100379.25;;;5.67;67.01
60089;BME280;45961;53.574;55.878;2023-04-02T03:25:40;100371.50;;;5.93;67.19
60089;BME280;45961;53.574;55.878;2023-04-02T03:27:50;100348.28;;;6.82;65.36
60089;BME280;45961;53.574;55.878;2023-04-02T03:31:31;100348.81;;;7.02;64.57
60089;BME280;45961;53.574;55.878;2023-04-02T03:32:36;100346.66;;;7.18;64.08
60089;BME280;45961;53.574;55.878;2023-04-02T03:33:43;100368.41;;;7.31;63.56
60089;BME280;45961;53.574;55.878;2023-04-02T03:37:29;100371.69;;;7.60;62.39
60089;BME280;45961;53.574;55.878;2023-04-02T03:38:42;100352.25;;;8.12;62.57
60089;BME280;45961;53.574;55.878;2023-04-02T03:39:52;100370.00;;;8.38;61.44
60089;BME280;45961;53.574;55.878;2023-04-02T03:41:00;100354.03;;;8.57;60.47
60089;BME280;45961;53.574;55.878;2023-04-02T03:42:25;100363.00;;;8.34;59.52
60089;BME280;45961;53.574;55.878;2023-04-02T03:43:41;100300.69;;;8.12;59.88
60089;BME280;45961;53.574;55.878;2023-04-02T03:44:48;100355.63;;;8.98;59.31
60089;BME280;45961;53.574;55.878;2023-04-02T03:46:02;100327.91;;;8.40;57.64
60089;BME280;45961;53.574;55.878;2023-04-02T03:48:38;100344.81;;;8.72;58.10
60089;BME280;45961;53.574;55.878;2023-04-02T03:50:02;100342.16;;;8.67;57.21
60089;BME280;45961;53.574;55.878;2023-04-02T03:52:27;100353.78;;;8.89;56.53
60089;BME280;45961;53.574;55.878;2023-04-02T03:53:31;100362.38;;;8.89;56.26
60089;BME280;45961;53.574;55.878;2023-04-02T03:54:33;100356.06;;;9.22;56.16
60089;BME280;45961;53.574;55.878;2023-04-02T03:55:36;100336.03;;;9.09;56.10
60089;BME280;45961;53.574;55.878;2023-04-02T03:56:40;100365.66;;;9.29;54.94
60089;BME280;45961;53.574;55.878;2023-04-02T03:59:38;100365.44;;;9.17;53.79
60089;BME280;45961;53.574;55.878;2023-04-02T04:00:49;100363.59;;;9.10;53.44
60089;BME280;45961;53.574;55.878;2023-04-02T04:01:57;100345.25;;;9.48;53.37
60089;BME280;45961;53.574;55.878;2023-04-02T04:03:18;100383.03;;;9.96;52.85
60089;BME280;45961;53.574;55.878;2023-04-02T04:04:23;100363.88;;;9.83;52.22
60089;BME280;45961;53.574;55.878;2023-04-02T04:05:42;100331.78;;;9.69;52.43
60089;BME280;45961;53.574;55.878;2023-04-02T04:06:49;100366.22;;;9.66;52.95
60089;BME280;45961;53.574;55.878;2023-04-02T04:07:56;100348.22;;;9.72;52.31
60089;BME280;45961;53.574;55.878;2023-04-02T04:09:11;100358.94;;;10.00;51.42
60089;BME280;45961;53.574;55.878;2023-04-02T04:10:23;100367.09;;;10.27;51.21
60089;BME280;45961;53.574;55.878;2023-04-02T04:11:31;100294.03;;;9.78;50.71
60089;BME280;45961;53.574;55.878;2023-04-02T04:12:39;100356.94;;;10.44;51.42
60089;BME280;45961;53.574;55.878;2023-04-02T04:14:17;100351.00;;;10.53;49.34
60089;BME280;45961;53.574;55.878;2023-04-02T04:16:46;100351.94;;;9.89;48.69
60089;BME280;45961;53.574;55.878;2023-04-02T04:19:43;100364.50;;;10.27;49.05
60089;BME280;45961;53.574;55.878;2023-04-02T04:20:57;100349.22;;;10.47;48.30
60089;BME280;45961;53.574;55.878;2023-04-02T04:22:21;100350.53;;;10.13;47.40
60089;BME280;45961;53.574;55.878;2023-04-02T04:23:38;100354.31;;;10.40;48.44
60089;BME280;45961;53.574;55.878;2023-04-02T04:24:47;100348.22;;;10.36;47.30
60089;BME280;45961;53.574;55.878;2023-04-02T04:26:03;100359.47;;;10.38;46.81
60089;BME280;45961;53.574;55.878;2023-04-02T04:29:35;100340.97;;;10.82;47.72
60089;BME280;45961;53.574;55.878;2023-04-02T04:32:18;100346.31;;;10.99;45.77
60089;BME280;45961;53.574;55.878;2023-04-02T04:33:33;100336.78;;;10.95;45.76
60089;BME280;45961;53.574;55.878;2023-04-02T04:34:42;100347.09;;;10.92;43.63
60089;BME280;45961;53.574;55.878;2023-04-02T04:35:58;100346.41;;;11.06;44.06
60089;BME280;45961;53.574;55.878;2023-04-02T04:37:03;100350.00;;;11.25;44.68
60089;BME280;45961;53.574;55.878;2023-04-02T04:38:18;100344.00;;;11.32;44.01
60089;BME280;45961;53.574;55.878;2023-04-02T04:39:44;100351.69;;;11.19;43.95
60089;BME280;45961;53.574;55.878;2023-04-02T04:40:56;100344.13;;;11.46;45.03
60089;BME280;45961;53.574;55.878;2023-04-02T04:42:02;100343.31;;;11.55;43.96
60089;BME280;45961;53.574;55.878;2023-04-02T04:43:15;100352.81;;;11.57;44.01
60089;BME280;45961;53.574;55.878;2023-04-02T04:46:01;100343.59;;;11.90;43.76
60089;BME280;45961;53.574;55.878;2023-04-02T04:47:05;100352.13;;;11.78;41.83
60089;BME280;45961;53.574;55.878;2023-04-02T04:48:31;100332.91;;;11.47;40.78
60089;BME280;45961;53.574;55.878;2023-04-02T04:49:51;100327.56;;;11.27;40.99
60089;BME280;45961;53.574;55.878;2023-04-02T04:50:59;100317.97;;;11.14;40.95
60089;BME280;45961;53.574;55.878;2023-04-02T04:52:09;100346.75;;;11.51;40.23
60089;BME280;45961;53.574;55.878;2023-04-02T04:53:22;100350.22;;;11.56;41.00
60089;BME280;45961;53.574;55.878;2023-04-02T04:54:27;100352.06;;;11.66;41.92
60089;BME280;45961;53.574;55.878;2023-04-02T04:55:36;100350.38;;;11.76;41.64
60089;BME280;45961;53.574;55.878;2023-04-02T04:56:39;100352.13;;;11.78;41.28
60089;BME280;45961;53.574;55.878;2023-04-02T04:57:47;100349.25;;;11.42;41.15
60089;BME280;45961;53.574;55.878;2023-04-02T04:59:16;100344.22;;;11.58;40.59
60089;BME280;45961;53.574;55.878;2023-04-02T05:02:00;100347.66;;;11.59;40.28
60089;BME280;45961;53.574;55.878;2023-04-02T05:03:12;100340.84;;;11.73;40.83
60089;BME280;45961;53.574;55.878;2023-04-02T05:04:57;100345.22;;;11.80;40.52
60089;BME280;45961;53.574;55.878;2023-04-02T05:05:53;100324.38;;;11.68;40.56
60089;BME280;45961;53.574;55.878;2023-04-02T05:07:02;100343.63;;;11.99;40.36
60089;BME280;45961;53.574;55.878;2023-04-02T05:08:24;100322.06;;;12.11;40.61
60089;BME280;45961;53.574;55.878;2023-04-02T05:10:50;100333.34;;;12.19;39.75
60089;BME280;45961;53.574;55.878;2023-04-02T05:13:13;100324.72;;;12.29;39.32
60089;BME280;45961;53.574;55.878;2023-04-02T05:14:24;100329.03;;;12.18;38.52
60089;BME280;45961;53.574;55.878;2023-04-02T05:15:38;100326.34;;;12.00;37.54
60089;BME280;45961;53.574;55.878;2023-04-02T05:16:48;100340.31;;;12.34;37.49
60089;BME280;45961;53.574;55.878;2023-04-02T05:18:12;100325.53;;;12.15;37.76
60089;BME280;45961;53.574;55.878;2023-04-02T05:19:28;100345.41;;;12.08;38.76
60089;BME280;45961;53.574;55.878;2023-04-02T05:20:39;100347.25;;;12.35;39.29
60089;BME280;45961;53.574;55.878;2023-04-02T05:22:04;100349.00;;;12.41;39.05
60089;BME280;45961;53.574;55.878;2023-04-02T05:23:26;100341.97;;;12.15;38.42
60089;BME280;45961;53.574;55.878;2023-04-02T05:24:52;100355.91;;;12.37;38.97
60089;BME280;45961;53.574;55.878;2023-04-02T05:26:04;100342.94;;;12.39;38.81
60089;BME280;45961;53.574;55.878;2023-04-02T05:27:45;100347.31;;;12.52;38.30
60089;BME280;45961;53.574;55.878;2023-04-02T05:30:08;100351.53;;;12.24;38.87
60089;BME280;45961;53.574;55.878;2023-04-02T05:31:14;100339.44;;;12.33;39.67
60089;BME280;45961;53.574;55.878;2023-04-02T05:32:33;100355.06;;;12.49;38.53
60089;BME280;45961;53.574;55.878;2023-04-02T05:33:37;100353.41;;;12.63;39.50
60089;BME280;45961;53.574;55.878;2023-04-02T05:34:49;100343.88;;;12.59;38.64
60089;BME280;45961;53.574;55.878;2023-04-02T05:35:57;100342.09;;;12.46;38.29
60089;BME280;45961;53.574;55.878;2023-04-02T05:37:00;100345.59;;;12.55;38.72
60089;BME280;45961;53.574;55.878;2023-04-02T05:38:03;100349.06;;;12.65;38.96
60089;BME280;45961;53.574;55.878;2023-04-02T05:39:09;100333.47;;;12.62;38.53
60089;BME280;45961;53.574;55.878;2023-04-02T05:40:28;100339.53;;;12.70;38.42
60089;BME280;45961;53.574;55.878;2023-04-02T05:41:37;100336.03;;;12.45;38.58
60089;BME280;45961;53.574;55.878;2023-04-02T05:42:42;100341.25;;;12.56;38.89
60089;BME280;45961;53.574;55.878;2023-04-02T05:43:48;100329.97;;;12.43;39.10
60089;BME280;45961;53.574;55.878;2023-04-02T05:46:01;100342.13;;;12.55;38.75
60089;BME280;45961;53.574;55.878;2023-04-02T05:47:13;100341.31;;;12.67;38.53
60089;BME280;45961;53.574;55.878;2023-04-02T05:48:20;100346.53;;;12.90;39.52
60089;BME280;45961;53.574;55.878;2023-04-02T05:50:39;100345.63;;;12.74;38.53
60089;BME280;45961;53.574;55.878;2023-04-02T05:51:49;100352.56;;;12.73;37.95
60089;BME280;45961;53.574;55.878;2023-04-02T05:53:05;100343.03;;;12.81;38.68
60089;BME280;45961;53.574;55.878;2023-04-02T05:54:24;100318.72;;;12.46;37.72
60089;BME280;45961;53.574;55.878;2023-04-02T05:55:38;100341.25;;;12.56;37.48
60089;BME280;45961;53.574;55.878;2023-04-02T05:56:45;100350.78;;;12.60;38.21
60089;BME280;45961;53.574;55.878;2023-04-02T05:57:53;100347.34;;;12.73;38.90
60089;BME280;45961;53.574;55.878;2023-04-02T06:02:16;100362.16;;;12.99;37.92
60089;BME280;45961;53.574;55.878;2023-04-02T06:04:42;100350.06;;;13.27;38.11
60089;BME280;45961;53.574;55.878;2023-04-02T06:05:47;100353.50;;;13.15;37.88
60089;BME280;45961;53.574;55.878;2023-04-02T06:07:59;100317.09;;;12.92;38.09
60089;BME280;45961;53.574;55.878;2023-04-02T06:09:23;100349.13;;;13.14;37.48
60089;BME280;45961;53.574;55.878;2023-04-02T06:11:10;100341.38;;;13.42;37.97
60089;BME280;45961;53.574;55.878;2023-04-02T06:13:23;100350.00;;;13.02;36.96
60089;BME280;45961;53.574;55.878;2023-04-02T06:14:25;100333.47;;;12.65;36.66
60089;BME280;45961;53.574;55.878;2023-04-02T06:15:30;100352.59;;;13.02;37.59
60089;BME280;45961;53.574;55.878;2023-04-02T06:16:36;100339.63;;;13.12;37.34
60089;BME280;45961;53.574;55.878;2023-04-02T06:17:59;100333.56;;;13.13;37.19
60089;BME280;45961;53.574;55.878;2023-04-02T06:19:05;100309.31;;;13.12;36.37
60089;BME280;45961;53.574;55.878;2023-04-02T06:20:13;100340.50;;;13.15;36.15
60089;BME280;45961;53.574;55.878;2023-04-02T06:21:17;100315.38;;;12.96;36.16
60089;BME280;45961;53.574;55.878;2023-04-02T06:22:34;100330.09;;;13.15;36.02
60089;BME280;45961;53.574;55.878;2023-04-02T06:23:44;100311.88;;;12.94;35.48
60089;BME280;45961;53.574;55.878;2023-04-02T06:24:52;100324.91;;;13.17;35.66
60089;BME280;45961;53.574;55.878;2023-04-02T06:26:07;100318.84;;;12.99;33.70
60089;BME280;45961;53.574;55.878;2023-04-02T06:27:14;100336.19;;;13.19;33.87
60089;BME280;45961;53.574;55.878;2023-04-02T06:28:44;100337.06;;;13.27;34.62
60089;BME280;45961;53.574;55.878;2023-04-02T06:29:49;100308.41;;;12.93;34.54
60089;BME280;45961;53.574;55.878;2023-04-02T06:30:57;100345.72;;;13.33;35.32
60089;BME280;45961;53.574;55.878;2023-04-02T06:32:09;100324.88;;;13.21;35.27
60089;BME280;45961;53.574;55.878;2023-04-02T06:33:14;100328.38;;;13.60;36.46
60089;BME280;45961;53.574;55.878;2023-04-02T06:34:20;100322.28;;;13.66;36.07
60089;BME280;45961;53.574;55.878;2023-04-02T06:35:31;100332.63;;;13.92;35.61
60089;BME280;45961;53.574;55.878;2023-04-02T06:36:35;100334.44;;;13.68;34.05
60089;BME280;45961;53.574;55.878;2023-04-02T06:37:47;100340.53;;;13.52;33.34
60089;BME280;45961;53.574;55.878;2023-04-02T06:39:00;100337.06;;;13.27;33.99
60089;BME280;45961;53.574;55.878;2023-04-02T06:40:25;100345.72;;;13.30;34.63
60089;BME280;45961;53.574;55.878;2023-04-02T06:41:27;100337.06;;;13.38;33.97
60089;BME280;45961;53.574;55.878;2023-04-02T06:43:16;100298.06;;;13.28;34.57
60089;BME280;45961;53.574;55.878;2023-04-02T06:44:53;100312.81;;;13.23;34.88
60089;BME280;45961;53.574;55.878;2023-04-02T06:46:42;100330.94;;;13.72;34.79
60089;BME280;45961;53.574;55.878;2023-04-02T06:47:49;100328.38;;;13.63;34.26
60089;BME280;45961;53.574;55.878;2023-04-02T06:50:47;100331.75;;;13.87;34.07
60089;BME280;45961;53.574;55.878;2023-04-02T06:51:52;100312.75;;;13.66;33.61
60089;BME280;45961;53.574;55.878;2023-04-02T06:53:04;100320.53;;;13.80;34.12
60089;BME280;45961;53.574;55.878;2023-04-02T06:54:14;100323.16;;;13.69;33.39
60089;BME280;45961;53.574;55.878;2023-04-02T06:55:46;100320.50;;;13.88;34.02
60089;BME280;45961;53.574;55.878;2023-04-02T06:56:50;100322.22;;;13.99;33.50
60089;BME280;45961;53.574;55.878;2023-04-02T06:57:59;100322.22;;;13.93;33.20
60089;BME280;45961;53.574;55.878;2023-04-02T06:59:02;100310.88;;;14.13;33.85
60089;BME280;45961;53.574;55.878;2023-04-02T07:00:23;100317.72;;;14.30;34.07
60089;BME280;45961;53.574;55.878;2023-04-02T07:01:28;100304.69;;;14.38;34.28
60089;BME280;45961;53.574;55.878;2023-04-02T07:02:36;100308.31;;;14.05;32.56
60089;BME280;45961;53.574;55.878;2023-04-02T07:03:42;100305.75;;;13.96;32.46
60089;BME280;45961;53.574;55.878;2023-04-02T07:04:49;100303.94;;;14.10;33.14
60089;BME280;45961;53.574;55.878;2023-04-02T07:05:53;100303.94;;;14.16;32.61
60089;BME280;45961;53.574;55.878;2023-04-02T07:06:54;100307.41;;;14.12;32.95
60089;BME280;45961;53.574;55.878;2023-04-02T07:07:57;100292.72;;;13.90;32.66
60089;BME280;45961;53.574;55.878;2023-04-02T07:08:59;100281.47;;;13.85;32.53
60089;BME280;45961;53.574;55.878;2023-04-02T07:10:01;100306.59;;;14.01;32.98